createdAt,value
2022-08-11T00:04:02.313Z,5.25
2022-08-11T00:06:39.164Z,5.30
2022-08-11T00:09:11.821Z,6.25
2022-08-11T00:11:48.008Z,5.05
2022-08-11T00:14:20.888Z,5.47
2022-08-11T00:17:02.589Z,5.57
2022-08-11T00:20:13.866Z,5.75
2022-08-11T00:22:44.092Z,4.95
2022-08-11T00:25:19.772Z,5.72
2022-08-11T00:27:48.252Z,6.30
2022-08-11T00:30:16.627Z,5.40
2022-08-11T00:32:55.437Z,5.05
2022-08-11T00:35:51.815Z,5.43
2022-08-11T00:38:26.077Z,5.85
2022-08-11T00:41:46.812Z,4.63
2022-08-11T00:44:40.337Z,4.82
2022-08-11T00:47:32.012Z,5.07
2022-08-11T00:50:40.710Z,4.68
2022-08-11T00:53:37.090Z,5.03
2022-08-11T00:56:43.811Z,4.93
2022-08-11T00:59:41.133Z,4.93
2022-08-11T01:02:43.319Z,4.50
2022-08-11T01:05:56.483Z,4.47
2022-08-11T01:08:35.203Z,4.82
2022-08-11T01:11:55.815Z,5.80
2022-08-11T01:14:56.016Z,5.03
2022-08-11T01:18:15.574Z,6.40
2022-08-11T01:21:28.996Z,5.05
2022-08-11T01:24:23.290Z,5.53
2022-08-11T01:27:59.064Z,5.88
2022-08-11T01:31:23.741Z,5.40
2022-08-11T01:34:27.804Z,6.25
2022-08-11T01:37:31.139Z,6.20
2022-08-11T01:40:25.840Z,5.90
2022-08-11T01:43:56.565Z,7.43
2022-08-11T01:46:45.264Z,6.55
2022-08-11T01:50:07.638Z,8.02
2022-08-11T01:52:34.647Z,6.22
2022-08-11T01:55:39.678Z,6.55
2022-08-11T01:58:43.633Z,5.93
2022-08-11T02:01:37.638Z,6.05
2022-08-11T02:05:03.277Z,6.13
2022-08-11T02:08:01.825Z,5.78
2022-08-11T02:11:06.422Z,6.50
2022-08-11T02:13:52.477Z,6.82
2022-08-11T02:16:53.229Z,6.38
2022-08-11T02:20:16.333Z,5.38
2022-08-11T02:23:58.714Z,4.97
2022-08-11T02:26:27.257Z,5.40
2022-08-11T02:29:33.118Z,4.75
2022-08-11T02:32:44.285Z,5.53
2022-08-11T02:35:57.125Z,4.97
2022-08-11T02:38:57.921Z,6.97
2022-08-11T02:42:33.469Z,4.97
2022-08-11T02:45:32.506Z,4.43
2022-08-11T02:48:54.914Z,4.18
2022-08-11T02:51:33.785Z,3.40
2022-08-11T03:08:18.729Z,3.90
2022-08-11T03:11:21.777Z,3.50
2022-08-11T03:17:36.898Z,3.55
2022-08-11T03:20:33.303Z,4.30
2022-08-11T03:23:41.517Z,4.13
2022-08-11T03:26:28.632Z,4.32
2022-08-11T03:29:24.974Z,4.57
2022-08-11T03:32:26.460Z,4.32
2022-08-11T03:34:59.650Z,3.92
2022-08-11T03:37:55.519Z,4.40
2022-08-11T03:41:02.557Z,3.85
2022-08-11T03:44:04.825Z,3.83
2022-08-11T03:47:08.076Z,3.95
2022-08-11T03:50:07.502Z,4.15
2022-08-11T03:53:01.450Z,4.80
2022-08-11T03:56:30.772Z,4.32
2022-08-11T03:59:37.224Z,4.70
2022-08-11T04:02:37.818Z,4.65
2022-08-11T04:06:09.192Z,5.20
2022-08-11T04:09:23.480Z,4.32
2022-08-11T04:12:47.123Z,5.25
2022-08-11T04:16:12.086Z,5.25
2022-08-11T04:19:19.460Z,5.15
2022-08-11T04:22:20.197Z,4.50
2022-08-11T04:25:57.689Z,4.85
2022-08-11T04:29:03.443Z,4.43
2022-08-11T04:32:15.937Z,4.88
2022-08-11T04:35:32.758Z,4.55
2022-08-11T04:38:18.437Z,4.10
2022-08-11T04:41:58.681Z,3.78
2022-08-11T04:45:10.906Z,3.70
2022-08-11T04:48:43.223Z,3.50
2022-08-11T04:52:13.911Z,4.45
2022-08-11T04:55:27.471Z,4.38
2022-08-11T04:58:35.605Z,3.92
2022-08-11T05:01:42.657Z,4.00
2022-08-11T05:05:09.353Z,4.10
2022-08-11T05:08:28.653Z,4.15
2022-08-11T05:11:38.892Z,3.72
2022-08-11T05:14:30.483Z,3.63
2022-08-11T05:17:24.817Z,3.45
2022-08-11T05:20:10.636Z,3.65
2022-08-11T05:23:08.903Z,4.00
2022-08-11T05:26:43.341Z,3.70
2022-08-11T05:29:21.005Z,4.20
2022-08-11T05:32:19.623Z,4.30
2022-08-11T05:34:54.199Z,5.20
2022-08-11T05:37:34.271Z,4.53
2022-08-11T05:40:32.094Z,3.92
2022-08-11T05:43:21.270Z,3.97
2022-08-11T05:46:25.989Z,3.72
2022-08-11T05:49:12.770Z,3.45
2022-08-11T05:52:05.009Z,3.25
2022-08-11T05:54:54.425Z,3.00
2022-08-11T05:57:50.006Z,3.40
2022-08-11T06:00:20.167Z,3.50
2022-08-11T06:02:55.436Z,2.63
2022-08-11T06:05:38.579Z,3.17
2022-08-11T06:08:13.988Z,3.00
2022-08-11T06:11:01.618Z,2.85
2022-08-11T06:13:30.191Z,5.30
2022-08-11T06:16:01.523Z,2.58
2022-08-11T06:18:32.000Z,2.67
2022-08-11T06:21:00.603Z,2.88
2022-08-11T06:23:33.693Z,3.28
2022-08-11T06:26:14.055Z,2.72
2022-08-11T06:28:45.904Z,3.35
2022-08-11T06:31:28.560Z,2.77
2022-08-11T06:34:08.151Z,2.78
2022-08-11T06:36:53.740Z,2.60
2022-08-11T06:39:43.883Z,2.88
2022-08-11T06:42:53.682Z,2.67
2022-08-11T06:45:27.159Z,2.67
2022-08-11T06:48:00.738Z,2.88
2022-08-11T06:58:00.846Z,2.63
2022-08-11T07:01:47.799Z,2.22
2022-08-11T07:05:32.691Z,3.00
2022-08-11T07:09:05.839Z,2.22
2022-08-11T07:12:21.633Z,2.30
2022-08-11T07:19:21.195Z,2.78
2022-08-11T07:26:11.916Z,2.30
2022-08-11T07:39:03.136Z,1.90
2022-08-11T07:46:46.123Z,2.08
2022-08-11T07:53:41.915Z,2.20
2022-08-11T07:58:13.960Z,3.00
2022-08-11T08:04:47.252Z,2.10
2022-08-11T08:08:03.196Z,1.85
2022-08-11T08:14:09.067Z,2.30
2022-08-11T08:16:56.744Z,1.85
2022-08-11T08:19:24.556Z,2.55
2022-08-11T08:21:52.543Z,2.00
2022-08-11T08:24:21.256Z,1.63
2022-08-11T08:26:58.918Z,1.35
2022-08-11T08:29:53.197Z,1.75
2022-08-11T08:32:21.887Z,1.90
2022-08-11T08:34:54.233Z,1.65
2022-08-11T08:37:45.641Z,1.33
2022-08-11T08:40:15.601Z,2.55
2022-08-11T08:42:54.951Z,2.05
2022-08-11T08:55:45.621Z,1.70
2022-08-11T09:00:07.456Z,1.60
2022-08-11T09:35:38.678Z,2.00
2022-08-11T10:25:51.330Z,1.50
2022-08-11T10:28:33.480Z,1.43
2022-08-11T10:31:24.860Z,1.73
2022-08-11T10:34:01.965Z,1.57
2022-08-11T10:36:36.035Z,1.58
2022-08-11T10:39:06.017Z,1.30
2022-08-11T10:42:06.679Z,1.67
2022-08-11T10:44:46.026Z,1.10
2022-08-11T10:47:34.720Z,1.60
2022-08-11T10:50:29.291Z,1.17
2022-08-11T10:53:18.285Z,1.75
2022-08-11T10:56:06.010Z,1.30
2022-08-11T10:58:48.278Z,1.13
2022-08-11T11:01:23.873Z,1.60
2022-08-11T11:04:13.566Z,1.85
2022-08-11T11:07:06.234Z,1.20
2022-08-11T11:09:50.557Z,2.30
2022-08-11T11:12:51.067Z,1.20
2022-08-11T11:15:41.462Z,1.17
2022-08-11T11:18:24.924Z,1.23
2022-08-11T11:21:07.530Z,1.08
2022-08-11T11:23:37.646Z,1.50
2022-08-11T11:26:28.016Z,1.10
2022-08-11T11:29:25.322Z,1.20
2022-08-11T11:32:20.555Z,1.10
2022-08-11T11:35:13.370Z,1.52
2022-08-11T11:38:00.031Z,0.90
2022-08-11T11:40:34.713Z,1.23
2022-08-11T11:43:05.629Z,0.88
2022-08-11T11:45:33.346Z,1.20
2022-08-11T11:48:02.124Z,0.80
2022-08-11T11:50:35.832Z,0.73
2022-08-11T11:53:12.291Z,0.75
2022-08-11T11:55:40.724Z,1.30
2022-08-11T11:58:27.581Z,0.90
2022-08-11T12:01:15.442Z,0.80
2022-08-11T12:03:50.447Z,0.88
2022-08-11T12:06:21.295Z,0.88
2022-08-11T12:08:52.143Z,0.93
2022-08-11T12:11:42.268Z,0.50
2022-08-11T12:14:12.415Z,0.77
2022-08-11T12:16:43.103Z,0.80
2022-08-11T12:19:18.217Z,0.90
2022-08-11T12:22:05.291Z,0.73
2022-08-11T12:24:55.001Z,0.98
2022-08-11T12:27:25.402Z,0.50
2022-08-11T12:30:11.345Z,0.82
2022-08-11T12:32:43.979Z,0.47
2022-08-11T12:35:15.902Z,0.80
2022-08-11T12:38:00.433Z,0.70
2022-08-11T12:41:15.140Z,0.80
2022-08-11T12:44:05.723Z,0.93
2022-08-11T12:46:38.526Z,0.50
2022-08-11T12:49:45.497Z,0.88
2022-08-11T12:52:23.925Z,0.82
2022-08-11T12:55:14.418Z,0.70
2022-08-11T12:58:07.526Z,0.82
2022-08-11T13:00:56.628Z,1.08
2022-08-11T13:03:43.778Z,0.80
2022-08-11T13:06:24.394Z,0.80
2022-08-11T13:08:52.679Z,0.73
2022-08-11T13:11:56.674Z,0.75
2022-08-11T13:14:27.502Z,0.80
2022-08-11T13:17:19.727Z,0.80
2022-08-11T13:19:49.681Z,0.70
2022-08-11T13:22:20.156Z,1.03
2022-08-11T13:24:49.964Z,1.00
2022-08-11T13:27:20.859Z,0.70
2022-08-11T13:29:50.414Z,0.80
2022-08-11T13:32:22.352Z,0.63
2022-08-11T13:34:54.314Z,0.50
2022-08-11T13:38:18.458Z,0.95
2022-08-11T13:40:12.717Z,0.82
2022-08-11T13:42:41.860Z,1.00
2022-08-11T13:45:10.655Z,0.73
2022-08-11T13:47:43.942Z,0.80
2022-08-11T13:50:13.594Z,0.80
2022-08-11T13:52:43.104Z,0.80
2022-08-11T13:55:51.126Z,1.13
2022-08-11T13:58:20.620Z,0.80
2022-08-11T14:01:01.047Z,1.10
2022-08-11T14:04:29.681Z,1.00
2022-08-11T14:06:46.365Z,0.70
2022-08-11T14:09:19.877Z,0.98
2022-08-11T14:12:22.060Z,0.98
2022-08-11T14:15:10.806Z,0.90
2022-08-11T14:17:48.870Z,0.90
2022-08-11T14:20:38.997Z,0.85
2022-08-11T14:23:07.737Z,0.80
2022-08-11T14:26:01.139Z,0.95
2022-08-11T14:28:31.010Z,1.00
2022-08-11T14:31:05.422Z,1.08
2022-08-11T14:34:00.263Z,1.00
2022-08-11T14:36:31.108Z,0.93
2022-08-11T14:38:58.763Z,0.82
2022-08-11T14:42:10.424Z,1.00
2022-08-11T14:45:04.877Z,1.10
2022-08-11T14:47:37.244Z,1.02
2022-08-11T14:50:11.186Z,1.10
2022-08-11T14:52:48.937Z,0.82
2022-08-11T14:55:37.081Z,0.88
2022-08-11T14:58:08.607Z,1.00
2022-08-11T15:00:42.333Z,1.13
2022-08-11T15:03:14.400Z,1.25
2022-08-11T15:05:55.835Z,1.08
2022-08-11T15:08:53.792Z,0.80
2022-08-11T15:11:50.231Z,0.90
2022-08-11T15:14:41.425Z,1.20
2022-08-11T15:17:16.552Z,0.80
2022-08-11T15:20:08.368Z,1.00
2022-08-11T15:22:59.800Z,0.88
2022-08-11T15:25:29.797Z,0.85
2022-08-11T15:28:17.533Z,1.02
2022-08-11T15:31:05.457Z,0.90
2022-08-11T15:33:54.519Z,0.75
2022-08-11T15:36:41.662Z,0.90
2022-08-11T15:39:33.249Z,0.95
2022-08-11T15:42:35.088Z,1.00
2022-08-11T15:45:43.753Z,0.90
2022-08-11T15:48:21.064Z,0.93
2022-08-11T15:50:55.992Z,0.85
2022-08-11T15:53:35.561Z,0.80
2022-08-11T15:56:04.939Z,0.70
2022-08-11T15:59:33.724Z,0.80
2022-08-11T16:02:07.478Z,0.80
2022-08-11T16:04:38.069Z,0.90
2022-08-11T16:07:29.754Z,1.00
2022-08-11T16:10:33.727Z,1.10
2022-08-11T16:13:09.122Z,1.20
2022-08-11T16:16:15.503Z,1.00
2022-08-11T16:18:56.145Z,0.88
2022-08-11T16:21:42.868Z,1.20
2022-08-11T16:27:01.848Z,0.95
2022-08-11T16:27:13.415Z,1.30
2022-08-11T16:29:46.571Z,1.08
2022-08-11T16:32:21.921Z,0.90
2022-08-11T16:35:19.492Z,1.00
2022-08-11T16:38:07.902Z,1.20
2022-08-11T16:40:36.049Z,1.13
2022-08-11T16:43:27.730Z,0.90
2022-08-11T16:46:15.001Z,1.05
2022-08-11T16:48:46.151Z,1.05
2022-08-11T16:53:54.838Z,1.23
2022-08-11T16:56:49.143Z,1.40
2022-08-11T16:59:38.649Z,1.23
2022-08-11T17:02:13.512Z,1.00
2022-08-11T17:05:14.331Z,1.10
2022-08-11T17:08:05.713Z,0.80
2022-08-11T17:13:42.541Z,1.00
2022-08-11T17:16:13.699Z,1.58
2022-08-11T17:18:56.657Z,0.80
2022-08-11T17:21:36.777Z,1.30
2022-08-11T17:24:10.302Z,1.00
2022-08-11T17:26:57.700Z,1.20
2022-08-11T17:29:30.495Z,1.00
2022-08-11T17:32:23.010Z,1.30
2022-08-11T17:35:13.903Z,1.40
2022-08-11T17:40:14.478Z,1.35
2022-08-11T17:43:02.739Z,1.23
2022-08-11T17:45:49.785Z,1.20
2022-08-11T17:48:27.718Z,1.35
2022-08-11T17:51:03.032Z,0.93
2022-08-11T17:54:09.938Z,1.20
2022-08-11T17:57:21.252Z,1.08
2022-08-11T17:59:56.386Z,1.35
2022-08-11T18:03:11.620Z,1.13
2022-08-11T18:05:45.818Z,1.30
2022-08-11T18:08:34.471Z,1.40
2022-08-11T18:12:06.881Z,0.95
2022-08-11T18:14:31.726Z,1.10
2022-08-11T18:17:18.180Z,1.15
2022-08-11T18:20:04.513Z,1.15
2022-08-11T18:23:00.761Z,0.93
2022-08-11T18:26:00.961Z,1.20
2022-08-11T18:28:57.910Z,1.10
2022-08-11T18:31:45.541Z,1.30
2022-08-11T18:34:37.224Z,1.15
2022-08-11T18:37:31.020Z,1.37
2022-08-11T18:40:29.560Z,1.30
2022-08-11T18:43:27.288Z,1.20
2022-08-11T18:46:23.951Z,1.40
2022-08-11T18:49:19.580Z,1.05
2022-08-11T18:52:12.551Z,1.73
2022-08-11T18:55:03.547Z,1.67
2022-08-11T18:57:53.783Z,1.58
2022-08-11T19:00:42.416Z,1.50
2022-08-11T19:03:43.330Z,1.35
2022-08-11T19:06:41.229Z,1.33
2022-08-11T19:09:37.241Z,1.63
2022-08-11T19:12:27.945Z,1.52
2022-08-11T19:15:17.469Z,2.25
2022-08-11T19:18:05.664Z,2.80
2022-08-11T19:20:55.244Z,3.38
2022-08-11T19:23:53.850Z,2.25
2022-08-11T19:26:43.892Z,2.03
2022-08-11T19:30:04.959Z,1.92
2022-08-11T19:32:42.626Z,3.05
2022-08-11T19:35:29.891Z,2.55
2022-08-11T19:38:19.823Z,2.08
2022-08-11T19:41:07.384Z,2.10
2022-08-11T19:43:55.743Z,2.72
2022-08-11T19:46:44.148Z,2.20
2022-08-11T19:49:32.161Z,2.50
2022-08-11T19:52:18.284Z,2.70
2022-08-11T19:55:06.646Z,1.88
2022-08-11T19:57:55.797Z,2.05
2022-08-11T20:00:43.598Z,2.40
2022-08-11T20:03:31.125Z,1.92
2022-08-11T20:06:24.369Z,1.98
2022-08-11T20:09:19.434Z,3.10
2022-08-11T20:12:14.662Z,2.95
2022-08-11T20:15:02.680Z,2.92
2022-08-11T20:17:58.299Z,3.65
2022-08-11T20:20:49.344Z,3.22
2022-08-11T20:23:36.911Z,2.80
2022-08-11T20:26:31.201Z,2.83
2022-08-11T20:29:21.354Z,2.95
2022-08-11T20:32:08.469Z,3.00
2022-08-11T20:34:57.794Z,3.20
2022-08-11T20:37:50.184Z,2.95
2022-08-11T20:40:45.147Z,2.50
2022-08-11T20:44:06.400Z,2.80
2022-08-11T20:46:42.740Z,2.45
2022-08-11T20:49:40.901Z,2.47
2022-08-11T20:52:38.826Z,2.10
2022-08-11T20:55:46.162Z,2.75
2022-08-11T21:01:45.919Z,2.65
2022-08-11T21:04:33.143Z,2.60
2022-08-11T21:07:28.324Z,2.65
2022-08-11T21:13:29.325Z,2.42
2022-08-11T21:16:26.280Z,2.50
2022-08-11T21:20:01.779Z,2.70
2022-08-11T21:23:10.120Z,2.30
2022-08-11T21:26:06.846Z,3.08
2022-08-11T21:28:59.543Z,3.40
2022-08-11T21:34:40.143Z,2.65
2022-08-11T21:37:28.771Z,2.97
2022-08-11T21:40:20.005Z,3.42
2022-08-11T21:43:08.453Z,3.42
2022-08-11T21:45:57.820Z,3.00
2022-08-11T21:48:46.517Z,3.38
2022-08-11T21:51:32.592Z,3.30
2022-08-11T21:54:20.111Z,3.45
2022-08-11T21:57:07.748Z,3.70
2022-08-11T22:00:03.300Z,2.83
2022-08-11T22:05:45.975Z,2.67
2022-08-11T22:08:32.971Z,3.03
2022-08-11T22:11:32.254Z,3.08
2022-08-11T22:14:23.255Z,3.05
2022-08-11T22:17:09.797Z,2.55
2022-08-11T22:20:00.673Z,2.63
2022-08-11T22:22:52.752Z,3.17
2022-08-11T22:25:50.750Z,2.63
2022-08-11T22:28:38.600Z,3.03
2022-08-11T22:31:28.402Z,3.47
2022-08-11T22:34:15.321Z,3.05
2022-08-11T22:37:05.132Z,2.75
2022-08-11T22:40:02.592Z,3.00
2022-08-11T22:42:51.507Z,2.83
2022-08-11T22:45:38.720Z,3.00
2022-08-11T22:48:28.425Z,2.92
2022-08-11T22:51:17.509Z,3.13
2022-08-11T22:54:06.106Z,2.95
2022-08-11T22:56:52.608Z,2.85
2022-08-11T22:59:39.749Z,2.42
2022-08-11T23:02:28.530Z,3.10
2022-08-11T23:05:16.575Z,2.75
2022-08-11T23:08:04.159Z,3.08
2022-08-11T23:10:51.006Z,3.00
2022-08-11T23:13:38.726Z,3.17
2022-08-11T23:16:25.851Z,3.25
2022-08-11T23:19:13.636Z,3.20
2022-08-11T23:22:21.823Z,3.03
2022-08-11T23:25:07.625Z,3.30
2022-08-11T23:27:56.528Z,2.50
2022-08-11T23:30:52.720Z,3.00
2022-08-11T23:33:42.530Z,3.50
2022-08-11T23:36:34.049Z,3.88
2022-08-11T23:39:56.650Z,3.13
2022-08-11T23:42:42.100Z,2.67
2022-08-11T23:45:33.828Z,3.30
2022-08-11T23:48:38.384Z,3.00
2022-08-11T23:51:26.522Z,2.97
2022-08-11T23:54:31.576Z,3.00
2022-08-11T23:57:22.023Z,3.60
